Hauptseite
METAR-TAF:

METAR-TAF

Flughäfen :

Wattisham, England

Breite: 52-07N, Länge: 000-58E, Höhe: 87 m

Beobachtung

Neuester Wetterbericht von vor 1 Stunde und 19 Minuten, um 11:50 UTC
Windstille
Temperatur 3°C
Luftfeuchtigkeit 87%
Luftdruck 999 hPa
Sichtweite 10 km oder mehr
Leichtregen

METAR: EGUW 201150Z AUTO 00000KT 9999 -RA BKN029/// BKN050/// 03/01 Q0999

Zeit: 13:09 (13:09 UTC)

Prognose

Neuester Wetterbericht von vor 23 Stunden und 39 Minuten, um 13:30 UTC
Gültige Prognose vom 19 um 15 UTC bis 19 um 19 UTC
Wind 14 kt aus West
Sichtweite 10 km oder mehr
Aufgelockert bewölkt in der Höhe von 2500 ft

TAF: EGUW 191330Z 1915/1919 27014KT 9999 SCT025

Wetterbeobachtungen und Prognosen von mehr als 4000 Flughäfen (METAR und TAF Bericht).

Die verfügbaren Stationen werden durch gelbe und rote Markierungen auf der Karte dargestellt.

Führen Sie die Maus auf sie, um den Namen der Station zu sehen.

Darauf klicken, um die Beobachtung von Wetterbeobachtungen und Prognosen zu sehen.

Um die Karte zu ändern : klicken Sie auf den grünen Tasten mit einem schwarzen Kreuz Zum Vergrößern, auf den grünen Button mit einem Gedankenstrich zu verkleinern, oder auf die grünen Pfeile für benachbarte Karten.


METAR-TAF: